Morning Celine — 3FMC5 — position and weather

sailwx.info

Track history (hours):
 
Tides and Currents Weather Stations Pressure Air Temp Water Temp Dewpoint Dewpoint Depression Visibility Wind Speed Wind Dir Waves Ship Positions

Morning Celine

Last reported at 2018-Apr-08 18:44 UTC. Time now 2018-Apr-19 23:26 UTC.
Position N 28°05' W 016°16'.
Warning: this ship's position is 11 days out of date.

Length 199 m; draft 9 m.

Type: Cargo ship. MMSI: 356956000.

Date/timePositionNaut miles runAvg speedWind from/ knotsBaromVisibWave heightAir tempDewpointWater temp
2018-Apr-08 18:44N 28°05' W 016°16'419.1
2018-Apr-08 18:30N 28°08' W 016°13'919.2
2018-Apr-08 18:00N 28°15' W 016°06'919.0
2018-Apr-08 17:31N 28°23' W 015°59'918.9
2018-Apr-08 17:00N 28°30' W 015°53'1018.6
2018-Apr-08 16:30N 28°38' W 015°46'918.2
2018-Apr-08 16:00N 28°46' W 015°42'918.3
2018-Apr-08 15:30N 28°54' W 015°39'1018.1
2018-Apr-08 14:56N 29°04' W 015°35'  
2018-Apr-05 21:39N 46°07' W 008°06'715.8
2018-Apr-05 21:14N 46°12' W 008°01'13615.8
2018-Apr-05 12:38N 48°11' W 006°23'14415.3
2018-Apr-05 03:11N 49°44' W 003°36'417.2
2018-Apr-05 02:59N 49°46' W 003°31'817.3
2018-Apr-05 02:30N 49°50' W 003°20'816.9
2018-Apr-05 02:00N 49°55' W 003°09'816.3
2018-Apr-05 01:30N 49°58' W 002°57'815.5
2018-Apr-05 01:00N 49°59' W 002°46'814.9
2018-Apr-05 00:30N 50°02' W 002°35'713.9
2018-Apr-05 00:00N 50°04' W 002°24'712.9
2018-Apr-04 23:25N 50°06' W 002°13'512.3
2018-Apr-04 23:00N 50°08' W 002°06'611.8
2018-Apr-04 22:30N 50°10' W 001°57'611.6
2018-Apr-04 22:00N 50°12' W 001°48'611.6
2018-Apr-04 21:31N 50°13' W 001°40'1312.7
2018-Apr-04 20:30N 50°17' W 001°21'714.2
2018-Apr-04 20:00N 50°18' W 001°10'1216.1
2018-Apr-04 19:14N 50°21' W 000°51'617.2
2018-Apr-04 18:54N 50°23' W 000°42'917.2
2018-Apr-04 18:21N 50°26' W 000°28'617.3
2018-Apr-04 18:00N 50°27' W 000°19'917.1
2018-Apr-04 17:30N 50°29' W 000°06'817.0
2018-Apr-04 17:00N 50°32' E 000°07'1616.4
2018-Apr-04 16:00N 50°36' E 000°32'815.6
2018-Apr-04 15:30N 50°40' E 000°42'815.2
2018-Apr-04 15:00N 50°45' E 000°51'714.4
2018-Apr-04 14:31N 50°49' E 001°01'713.9
2018-Apr-04 14:00N 50°54' E 001°09'813.7
2018-Apr-04 13:27N 50°59' E 001°18'613.2
2018-Apr-04 13:00N 51°03' E 001°25'714.3
2018-Apr-04 12:30N 51°07' E 001°33'815.6
2018-Apr-04 12:00N 51°12' E 001°43'816.8
2018-Apr-04 11:30N 51°19' E 001°51'917.6
2018-Apr-04 11:00N 51°26' E 001°58'918.1
2018-Apr-04 10:30N 51°33' E 002°08'918.1
2018-Apr-04 10:00N 51°40' E 002°17'917.8
2018-Apr-04 09:30N 51°47' E 002°27'4216.0
2018-Apr-04 06:53N 52°21' E 003°08'615.2
2018-Apr-04 06:28N 52°26' E 003°14'4614.7
2018-Apr-04 03:19N 53°00' E 004°05'1016.4
2018-Apr-04 02:41N 53°07' E 004°18'316.5
2018-Apr-04 02:30N 53°09' E 004°22'916.6
2018-Apr-04 01:59N 53°16' E 004°30'816.8
2018-Apr-04 01:29N 53°24' E 004°35'715.0
2018-Apr-04 01:00N 53°30' E 004°42'816.4
2018-Apr-04 00:30N 53°32' E 004°55'816.2
2018-Apr-04 00:00N 53°35' E 005°08'815.6
2018-Apr-03 23:30N 53°38' E 005°20'9014.8
2018-Apr-03 17:27N 53°53' E 007°50'613.3
2018-Apr-03 17:00N 53°51' E 007°60'918.2
2018-Apr-03 16:30N 53°46' E 008°12'918.4
2018-Apr-03 16:00N 53°40' E 008°23'713.7
2018-Apr-03 15:30N 53°35' E 008°32'1 2.1
2018-Apr-03 15:00N 53°34' E 008°33'0 0.7
2018-Apr-03 14:30N 53°35' E 008°33'0 0.2
2018-Apr-03 13:59N 53°35' E 008°33'0 0.0
2018-Apr-03 13:29N 53°35' E 008°33'0 0.0
2018-Apr-03 12:59N 53°35' E 008°33'0 0.0
2018-Apr-03 12:29N 53°35' E 008°33'0 0.0
2018-Apr-03 11:59N 53°35' E 008°33'0 0.0
2018-Apr-03 11:29N 53°35' E 008°33'0 0.0
2018-Apr-03 10:59N 53°35' E 008°33'0 0.0
2018-Apr-03 10:29N 53°35' E 008°33'0 0.0
2018-Apr-03 09:59N 53°35' E 008°33'0 0.0
2018-Apr-03 09:29N 53°35' E 008°33'0 0.0
2018-Apr-03 08:56N 53°35' E 008°33'0 0.0
2018-Apr-03 08:29N 53°35' E 008°33'0 0.0
2018-Apr-03 07:59N 53°35' E 008°33'0 0.0
2018-Apr-03 07:29N 53°35' E 008°33'0 0.0
2018-Apr-03 06:59N 53°35' E 008°33'0 0.0
2018-Apr-03 06:29N 53°35' E 008°33'0 0.0
2018-Apr-03 05:59N 53°35' E 008°33'0 0.0
2018-Apr-03 05:29N 53°35' E 008°33'0 0.0
2018-Apr-03 04:59N 53°35' E 008°33'0 0.0
2018-Apr-03 04:29N 53°35' E 008°33'0 0.0
2018-Apr-03 03:59N 53°35' E 008°33'0 0.0
2018-Apr-03 03:29N 53°35' E 008°33'0 0.0
2018-Apr-03 02:59N 53°35' E 008°33'0 0.0
2018-Apr-03 02:29N 53°35' E 008°33'0 0.0
2018-Apr-03 01:59N 53°35' E 008°33'0 0.0
2018-Apr-03 01:29N 53°35' E 008°33'0 0.0
2018-Apr-03 00:59N 53°35' E 008°33'0 0.0
2018-Apr-03 00:29N 53°35' E 008°33'0 0.0
2018-Apr-02 23:59N 53°35' E 008°33'0 0.0
2018-Apr-02 23:29N 53°35' E 008°33'0 0.0
2018-Apr-02 22:59N 53°35' E 008°33'0 0.0
2018-Apr-02 22:29N 53°35' E 008°33'0 0.0
2018-Apr-02 21:59N 53°35' E 008°33'0 0.0
2018-Apr-02 21:29N 53°35' E 008°33'0 0.0
2018-Apr-02 20:59N 53°35' E 008°33'0 0.0
2018-Apr-02 20:29N 53°35' E 008°33'0 0.0
2018-Apr-02 19:56N 53°35' E 008°33'0 0.0
2018-Apr-02 19:29N 53°35' E 008°33'0 0.0
2018-Apr-02 18:59N 53°35' E 008°33'0 0.0
2018-Apr-02 18:29N 53°35' E 008°33'0 0.0
2018-Apr-02 17:59N 53°35' E 008°33'0 0.0
2018-Apr-02 17:29N 53°35' E 008°33'0 0.0
2018-Apr-02 16:59N 53°35' E 008°33'0 0.0
2018-Apr-02 16:29N 53°35' E 008°33'0 0.0
2018-Apr-02 15:59N 53°35' E 008°33'0 0.0
2018-Apr-02 15:29N 53°35' E 008°33'0 0.0
2018-Apr-02 14:59N 53°35' E 008°33'0 0.0
2018-Apr-02 14:29N 53°35' E 008°33'0 0.0
2018-Apr-02 13:59N 53°35' E 008°33'0 0.0
2018-Apr-02 13:29N 53°35' E 008°33'0 0.0
2018-Apr-02 12:59N 53°35' E 008°33'0 0.0
2018-Apr-02 12:29N 53°35' E 008°33'0 0.0
2018-Apr-02 11:59N 53°35' E 008°33'0 0.0
2018-Apr-02 11:29N 53°35' E 008°33'0 0.0
2018-Apr-02 10:59N 53°35' E 008°33'0 0.0
2018-Apr-02 10:29N 53°35' E 008°33'0 0.0
2018-Apr-02 09:59N 53°35' E 008°33'0 0.0
2018-Apr-02 09:29N 53°35' E 008°33'0 0.0
2018-Apr-02 08:59N 53°35' E 008°33'0 0.0
2018-Apr-02 08:29N 53°35' E 008°33'0 0.0
2018-Apr-02 07:59N 53°35' E 008°33'0 0.0
2018-Apr-02 07:29N 53°35' E 008°33'0 0.0
2018-Apr-02 06:59N 53°35' E 008°33'0 0.0
2018-Apr-02 06:29N 53°35' E 008°33'0 0.0
2018-Apr-02 05:59N 53°35' E 008°33'0 0.0
2018-Apr-02 05:29N 53°35' E 008°33'0 0.0
2018-Apr-02 04:59N 53°35' E 008°33'0 0.0
2018-Apr-02 04:29N 53°35' E 008°33'0 0.0
2018-Apr-02 03:59N 53°35' E 008°33'0 0.0
2018-Apr-02 03:29N 53°35' E 008°33'0 0.0
2018-Apr-02 02:59N 53°35' E 008°33'0 0.0
2018-Apr-02 02:29N 53°35' E 008°33'0 0.0
2018-Apr-02 01:59N 53°35' E 008°33'0 0.0
2018-Apr-02 01:29N 53°35' E 008°33'0 0.0
2018-Apr-02 00:59N 53°35' E 008°33'0 0.0
2018-Apr-02 00:29N 53°35' E 008°33'0 0.0
2018-Apr-01 23:59N 53°35' E 008°33'0 0.0
2018-Apr-01 23:29N 53°35' E 008°33'0 0.0
2018-Apr-01 22:59N 53°35' E 008°33'0 0.0
2018-Apr-01 22:29N 53°35' E 008°33'0 0.0
2018-Apr-01 21:59N 53°35' E 008°33'0 0.0
2018-Apr-01 21:29N 53°35' E 008°33'0 0.0
2018-Apr-01 20:59N 53°35' E 008°33'0 0.0
2018-Apr-01 20:29N 53°35' E 008°33'0 0.0
2018-Apr-01 19:59N 53°35' E 008°33'0 0.0
2018-Apr-01 19:29N 53°35' E 008°33'0 0.0
2018-Apr-01 18:56N 53°35' E 008°33'0 0.0
2018-Apr-01 18:29N 53°35' E 008°33'0 0.0
2018-Apr-01 17:59N 53°35' E 008°33'0 0.0
2018-Apr-01 17:29N 53°35' E 008°33'0 0.0
2018-Apr-01 16:59N 53°35' E 008°33'0 0.0
2018-Apr-01 16:29N 53°35' E 008°33'0 0.0
2018-Apr-01 15:59N 53°35' E 008°33'0 0.0
2018-Apr-01 15:29N 53°35' E 008°33'0 0.0
2018-Apr-01 14:59N 53°35' E 008°33'0 0.0
2018-Apr-01 14:29N 53°35' E 008°33'0 0.0
2018-Apr-01 13:59N 53°35' E 008°33'0 0.0
2018-Apr-01 13:29N 53°35' E 008°33'0 0.0
2018-Apr-01 12:59N 53°35' E 008°33'0 0.0
2018-Apr-01 12:29N 53°35' E 008°33'0 0.0
2018-Apr-01 11:59N 53°35' E 008°33'0 0.0
2018-Apr-01 11:29N 53°35' E 008°33'0 0.0
2018-Apr-01 10:59N 53°35' E 008°33'0 0.0
2018-Apr-01 10:26N 53°35' E 008°33'0 0.0
2018-Apr-01 09:59N 53°35' E 008°33'0 0.0
2018-Apr-01 09:29N 53°35' E 008°33'0 0.0
2018-Apr-01 08:59N 53°35' E 008°33'0 0.0
2018-Apr-01 08:29N 53°35' E 008°33'0 0.0
2018-Apr-01 07:59N 53°35' E 008°33'0 0.0
2018-Apr-01 07:29N 53°35' E 008°33'0 0.0
2018-Apr-01 06:59N 53°35' E 008°33'0 0.0
2018-Apr-01 06:29N 53°35' E 008°33'0 0.0
2018-Apr-01 05:59N 53°35' E 008°33'0 0.0
2018-Apr-01 05:29N 53°35' E 008°33'0 0.0
2018-Apr-01 04:59N 53°35' E 008°33'0 0.0
2018-Apr-01 04:29N 53°35' E 008°33'0 0.0
2018-Apr-01 03:59N 53°35' E 008°33'0 0.0
2018-Apr-01 03:29N 53°35' E 008°33'0 0.0
2018-Apr-01 02:59N 53°35' E 008°33'0 0.0
2018-Apr-01 02:29N 53°35' E 008°33'0 0.0
2018-Apr-01 01:59N 53°35' E 008°33'0 0.0
2018-Apr-01 01:29N 53°35' E 008°33'0 0.0
2018-Apr-01 00:59N 53°35' E 008°33'0 0.0
2018-Apr-01 00:29N 53°35' E 008°33'0 0.0
2018-Mar-31 23:59N 53°35' E 008°33'0 0.0
2018-Mar-31 23:29N 53°35' E 008°33'0 0.0
2018-Mar-31 22:59N 53°35' E 008°33'0 0.0
2018-Mar-31 22:29N 53°35' E 008°33'0 0.0
2018-Mar-31 21:59N 53°35' E 008°33'0 0.0
2018-Mar-31 21:29N 53°35' E 008°33'0 0.0
2018-Mar-31 20:59N 53°35' E 008°33'0 0.0
2018-Mar-31 20:29N 53°35' E 008°33'0 0.0
2018-Mar-31 19:59N 53°35' E 008°33'0 0.0
2018-Mar-31 19:29N 53°35' E 008°33'0 0.0
2018-Mar-31 18:59N 53°35' E 008°33'0 0.0
2018-Mar-31 18:29N 53°35' E 008°33'0 0.0
2018-Mar-31 17:59N 53°35' E 008°33'0 0.0
2018-Mar-31 17:29N 53°35' E 008°33'0 0.0
2018-Mar-31 16:59N 53°35' E 008°33'0 0.0
2018-Mar-31 16:29N 53°35' E 008°33'0 0.0
2018-Mar-31 15:59N 53°35' E 008°33'0 0.0
2018-Mar-31 15:29N 53°35' E 008°33'0 0.6
2018-Mar-31 15:00N 53°34' E 008°33'0 0.5
2018-Mar-31 14:31N 53°34' E 008°33'1 1.8
2018-Mar-31 14:00N 53°35' E 008°32'5 9.3
2018-Mar-31 13:30N 53°38' E 008°26'611.2
2018-Mar-31 13:00N 53°42' E 008°20'714.3
2018-Mar-31 12:30N 53°46' E 008°10'714.6
2018-Mar-31 12:00N 53°51' E 008°00'611.7
2018-Mar-31 11:30N 53°52' E 007°50'510.6
2018-Mar-31 11:00N 53°53' E 007°42'4 8.5
2018-Mar-31 10:30N 53°54' E 007°34'5 9.4
2018-Mar-31 10:00N 53°53' E 007°27'1 1.6
2018-Mar-31 09:25N 53°52' E 007°26'0 0.1
2018-Mar-31 07:27N 53°52' E 007°26'3 7.5
2018-Mar-31 07:00N 53°53' E 007°31'7413.9
2018-Mar-31 01:42N 53°34' E 005°31'315.2
2018-Mar-31 01:30N 53°33' E 005°26'815.1
2018-Mar-31 01:00N 53°32' E 005°14'815.3
2018-Mar-31 00:30N 53°30' E 005°01'815.5
2018-Mar-31 00:00N 53°26' E 004°49'815.2
2018-Mar-30 23:30N 53°21' E 004°41'816.8
2018-Mar-30 23:00N 53°13' E 004°34'816.8
2018-Mar-30 22:30N 53°06' E 004°27'816.6
2018-Mar-30 22:01N 52°59' E 004°20'816.5
2018-Mar-30 21:30N 52°51' E 004°14'816.3
2018-Mar-30 21:00N 52°44' E 004°08'815.4
2018-Mar-30 20:30N 52°39' E 003°58'916.2
2018-Mar-30 19:58N 52°33' E 003°48'716.1
2018-Mar-30 19:30N 52°28' E 003°39'815.9
2018-Mar-30 19:00N 52°22' E 003°31'816.3
2018-Mar-30 18:29N 52°16' E 003°22'3816.8
2018-Mar-30 16:13N 51°47' E 002°41'417.8
2018-Mar-30 15:58N 51°42' E 002°41'817.5
2018-Mar-30 15:30N 51°34' E 002°43'816.9
2018-Mar-30 15:00N 51°26' E 002°43'5 9.5
2018-Mar-30 14:30N 51°24' E 002°50'816.4
2018-Mar-30 14:00N 51°25' E 003°03'713.7
2018-Mar-30 13:30N 51°21' E 003°12'1 2.1
2018-Mar-30 13:00N 51°20' E 003°13'1 1.0
2018-Mar-30 12:31N 51°20' E 003°13'1 1.4
2018-Mar-30 11:58N 51°19' E 003°14'0 0.0
2018-Mar-30 11:28N 51°19' E 003°14'0 0.0
2018-Mar-30 10:58N 51°19' E 003°14'0 0.0
2018-Mar-30 10:31N 51°19' E 003°14'0 0.0
2018-Mar-30 10:01N 51°19' E 003°14'0 0.0
2018-Mar-30 09:28N 51°19' E 003°14'0 0.0
2018-Mar-30 08:58N 51°19' E 003°14'0 0.0
2018-Mar-30 08:28N 51°19' E 003°14'0 0.0
2018-Mar-30 07:58N 51°19' E 003°14'0 0.0
2018-Mar-30 07:31N 51°19' E 003°14'0 0.0
2018-Mar-30 06:58N 51°19' E 003°14'0 0.0
2018-Mar-30 06:28N 51°19' E 003°14'0 0.0
2018-Mar-30 06:01N 51°19' E 003°14'0 0.0
2018-Mar-30 05:28N 51°19' E 003°14'0 0.0
2018-Mar-30 04:58N 51°19' E 003°14'0 0.0
2018-Mar-30 04:28N 51°19' E 003°14'0 0.0
2018-Mar-30 03:58N 51°19' E 003°14'0 0.0
2018-Mar-30 03:28N 51°19' E 003°14'0 0.0
2018-Mar-30 02:58N 51°19' E 003°14'0 0.0
2018-Mar-30 02:28N 51°19' E 003°14'0 0.0
2018-Mar-30 02:01N 51°19' E 003°14'0 0.0
2018-Mar-30 01:28N 51°19' E 003°14'0 0.0
2018-Mar-30 00:58N 51°19' E 003°14'0 0.0
2018-Mar-30 00:28N 51°19' E 003°14'0 0.0
2018-Mar-29 23:58N 51°19' E 003°14'0 0.0
2018-Mar-29 23:31N 51°19' E 003°14'0 0.0
2018-Mar-29 22:58N 51°19' E 003°14'0 0.0
2018-Mar-29 22:28N 51°19' E 003°14'0 0.0
2018-Mar-29 21:58N 51°19' E 003°14'0 0.0
2018-Mar-29 21:28N 51°19' E 003°14'0 0.0
2018-Mar-29 20:58N 51°19' E 003°14'0 0.0
2018-Mar-29 20:28N 51°19' E 003°14'0 0.0
2018-Mar-29 19:58N 51°19' E 003°14'0 0.0
2018-Mar-29 19:28N 51°19' E 003°14'0 0.0
2018-Mar-29 19:01N 51°19' E 003°14'  
Track history (hours):
 
Tides and Currents Weather Stations Pressure Air Temp Water Temp Dewpoint Dewpoint Depression Visibility Wind Speed Wind Dir Waves Ship Positions

Morning Celine

Last reported at 2018-Apr-08 18:44 UTC. Time now 2018-Apr-19 23:26 UTC.
Position N 28°05' W 016°16'.
Warning: this ship's position is 11 days out of date.

Length 199 m; draft 9 m.

Type: Cargo ship. MMSI: 356956000.

Date/timePositionNaut miles runAvg speedWind from/ knotsBaromVisibWave heightAir tempDewpointWater temp
2018-Apr-08 18:44N 28°05' W 016°16'419.1
2018-Apr-08 18:30N 28°08' W 016°13'919.2
2018-Apr-08 18:00N 28°15' W 016°06'919.0
2018-Apr-08 17:31N 28°23' W 015°59'918.9
2018-Apr-08 17:00N 28°30' W 015°53'1018.6
2018-Apr-08 16:30N 28°38' W 015°46'918.2
2018-Apr-08 16:00N 28°46' W 015°42'918.3
2018-Apr-08 15:30N 28°54' W 015°39'1018.1
2018-Apr-08 14:56N 29°04' W 015°35'  
2018-Apr-05 21:39N 46°07' W 008°06'715.8
2018-Apr-05 21:14N 46°12' W 008°01'13615.8
2018-Apr-05 12:38N 48°11' W 006°23'14415.3
2018-Apr-05 03:11N 49°44' W 003°36'417.2
2018-Apr-05 02:59N 49°46' W 003°31'817.3
2018-Apr-05 02:30N 49°50' W 003°20'816.9
2018-Apr-05 02:00N 49°55' W 003°09'816.3
2018-Apr-05 01:30N 49°58' W 002°57'815.5
2018-Apr-05 01:00N 49°59' W 002°46'814.9
2018-Apr-05 00:30N 50°02' W 002°35'713.9
2018-Apr-05 00:00N 50°04' W 002°24'712.9
2018-Apr-04 23:25N 50°06' W 002°13'512.3
2018-Apr-04 23:00N 50°08' W 002°06'611.8
2018-Apr-04 22:30N 50°10' W 001°57'611.6
2018-Apr-04 22:00N 50°12' W 001°48'611.6
2018-Apr-04 21:31N 50°13' W 001°40'1312.7
2018-Apr-04 20:30N 50°17' W 001°21'714.2
2018-Apr-04 20:00N 50°18' W 001°10'1216.1
2018-Apr-04 19:14N 50°21' W 000°51'617.2
2018-Apr-04 18:54N 50°23' W 000°42'917.2
2018-Apr-04 18:21N 50°26' W 000°28'617.3
2018-Apr-04 18:00N 50°27' W 000°19'917.1
2018-Apr-04 17:30N 50°29' W 000°06'817.0
2018-Apr-04 17:00N 50°32' E 000°07'1616.4
2018-Apr-04 16:00N 50°36' E 000°32'815.6
2018-Apr-04 15:30N 50°40' E 000°42'815.2
2018-Apr-04 15:00N 50°45' E 000°51'714.4
2018-Apr-04 14:31N 50°49' E 001°01'713.9
2018-Apr-04 14:00N 50°54' E 001°09'813.7
2018-Apr-04 13:27N 50°59' E 001°18'613.2
2018-Apr-04 13:00N 51°03' E 001°25'714.3
2018-Apr-04 12:30N 51°07' E 001°33'815.6
2018-Apr-04 12:00N 51°12' E 001°43'816.8
2018-Apr-04 11:30N 51°19' E 001°51'917.6
2018-Apr-04 11:00N 51°26' E 001°58'918.1
2018-Apr-04 10:30N 51°33' E 002°08'918.1
2018-Apr-04 10:00N 51°40' E 002°17'917.8
2018-Apr-04 09:30N 51°47' E 002°27'4216.0
2018-Apr-04 06:53N 52°21' E 003°08'615.2
2018-Apr-04 06:28N 52°26' E 003°14'4614.7
2018-Apr-04 03:19N 53°00' E 004°05'1016.4
2018-Apr-04 02:41N 53°07' E 004°18'316.5
2018-Apr-04 02:30N 53°09' E 004°22'916.6
2018-Apr-04 01:59N 53°16' E 004°30'816.8
2018-Apr-04 01:29N 53°24' E 004°35'715.0
2018-Apr-04 01:00N 53°30' E 004°42'816.4
2018-Apr-04 00:30N 53°32' E 004°55'816.2
2018-Apr-04 00:00N 53°35' E 005°08'815.6
2018-Apr-03 23:30N 53°38' E 005°20'9014.8
2018-Apr-03 17:27N 53°53' E 007°50'613.3
2018-Apr-03 17:00N 53°51' E 007°60'918.2
2018-Apr-03 16:30N 53°46' E 008°12'918.4
2018-Apr-03 16:00N 53°40' E 008°23'713.7
2018-Apr-03 15:30N 53°35' E 008°32'1 2.1
2018-Apr-03 15:00N 53°34' E 008°33'0 0.7
2018-Apr-03 14:30N 53°35' E 008°33'0 0.2
2018-Apr-03 13:59N 53°35' E 008°33'0 0.0
2018-Apr-03 13:29N 53°35' E 008°33'0 0.0
2018-Apr-03 12:59N 53°35' E 008°33'0 0.0
2018-Apr-03 12:29N 53°35' E 008°33'0 0.0
2018-Apr-03 11:59N 53°35' E 008°33'0 0.0
2018-Apr-03 11:29N 53°35' E 008°33'0 0.0
2018-Apr-03 10:59N 53°35' E 008°33'0 0.0
2018-Apr-03 10:29N 53°35' E 008°33'0 0.0
2018-Apr-03 09:59N 53°35' E 008°33'0 0.0
2018-Apr-03 09:29N 53°35' E 008°33'0 0.0
2018-Apr-03 08:56N 53°35' E 008°33'0 0.0
2018-Apr-03 08:29N 53°35' E 008°33'0 0.0
2018-Apr-03 07:59N 53°35' E 008°33'0 0.0
2018-Apr-03 07:29N 53°35' E 008°33'0 0.0
2018-Apr-03 06:59N 53°35' E 008°33'0 0.0
2018-Apr-03 06:29N 53°35' E 008°33'0 0.0
2018-Apr-03 05:59N 53°35' E 008°33'0 0.0
2018-Apr-03 05:29N 53°35' E 008°33'0 0.0
2018-Apr-03 04:59N 53°35' E 008°33'0 0.0
2018-Apr-03 04:29N 53°35' E 008°33'0 0.0
2018-Apr-03 03:59N 53°35' E 008°33'0 0.0
2018-Apr-03 03:29N 53°35' E 008°33'0 0.0
2018-Apr-03 02:59N 53°35' E 008°33'0 0.0
2018-Apr-03 02:29N 53°35' E 008°33'0 0.0
2018-Apr-03 01:59N 53°35' E 008°33'0 0.0
2018-Apr-03 01:29N 53°35' E 008°33'0 0.0
2018-Apr-03 00:59N 53°35' E 008°33'0 0.0
2018-Apr-03 00:29N 53°35' E 008°33'0 0.0
2018-Apr-02 23:59N 53°35' E 008°33'0 0.0
2018-Apr-02 23:29N 53°35' E 008°33'0 0.0
2018-Apr-02 22:59N 53°35' E 008°33'0 0.0
2018-Apr-02 22:29N 53°35' E 008°33'0 0.0
2018-Apr-02 21:59N 53°35' E 008°33'0 0.0
2018-Apr-02 21:29N 53°35' E 008°33'0 0.0
2018-Apr-02 20:59N 53°35' E 008°33'0 0.0
2018-Apr-02 20:29N 53°35' E 008°33'0 0.0
2018-Apr-02 19:56N 53°35' E 008°33'0 0.0
2018-Apr-02 19:29N 53°35' E 008°33'0 0.0
2018-Apr-02 18:59N 53°35' E 008°33'0 0.0
2018-Apr-02 18:29N 53°35' E 008°33'0 0.0
2018-Apr-02 17:59N 53°35' E 008°33'0 0.0
2018-Apr-02 17:29N 53°35' E 008°33'0 0.0
2018-Apr-02 16:59N 53°35' E 008°33'0 0.0
2018-Apr-02 16:29N 53°35' E 008°33'0 0.0
2018-Apr-02 15:59N 53°35' E 008°33'0 0.0
2018-Apr-02 15:29N 53°35' E 008°33'0 0.0
2018-Apr-02 14:59N 53°35' E 008°33'0 0.0
2018-Apr-02 14:29N 53°35' E 008°33'0 0.0
2018-Apr-02 13:59N 53°35' E 008°33'0 0.0
2018-Apr-02 13:29N 53°35' E 008°33'0 0.0
2018-Apr-02 12:59N 53°35' E 008°33'0 0.0
2018-Apr-02 12:29N 53°35' E 008°33'0 0.0
2018-Apr-02 11:59N 53°35' E 008°33'0 0.0
2018-Apr-02 11:29N 53°35' E 008°33'0 0.0
2018-Apr-02 10:59N 53°35' E 008°33'0 0.0
2018-Apr-02 10:29N 53°35' E 008°33'0 0.0
2018-Apr-02 09:59N 53°35' E 008°33'0 0.0
2018-Apr-02 09:29N 53°35' E 008°33'0 0.0
2018-Apr-02 08:59N 53°35' E 008°33'0 0.0
2018-Apr-02 08:29N 53°35' E 008°33'0 0.0
2018-Apr-02 07:59N 53°35' E 008°33'0 0.0
2018-Apr-02 07:29N 53°35' E 008°33'0 0.0
2018-Apr-02 06:59N 53°35' E 008°33'0 0.0
2018-Apr-02 06:29N 53°35' E 008°33'0 0.0
2018-Apr-02 05:59N 53°35' E 008°33'0 0.0
2018-Apr-02 05:29N 53°35' E 008°33'0 0.0
2018-Apr-02 04:59N 53°35' E 008°33'0 0.0
2018-Apr-02 04:29N 53°35' E 008°33'0 0.0
2018-Apr-02 03:59N 53°35' E 008°33'0 0.0
2018-Apr-02 03:29N 53°35' E 008°33'0 0.0
2018-Apr-02 02:59N 53°35' E 008°33'0 0.0
2018-Apr-02 02:29N 53°35' E 008°33'0 0.0
2018-Apr-02 01:59N 53°35' E 008°33'0 0.0
2018-Apr-02 01:29N 53°35' E 008°33'0 0.0
2018-Apr-02 00:59N 53°35' E 008°33'0 0.0
2018-Apr-02 00:29N 53°35' E 008°33'0 0.0
2018-Apr-01 23:59N 53°35' E 008°33'0 0.0
2018-Apr-01 23:29N 53°35' E 008°33'0 0.0
2018-Apr-01 22:59N 53°35' E 008°33'0 0.0
2018-Apr-01 22:29N 53°35' E 008°33'0 0.0
2018-Apr-01 21:59N 53°35' E 008°33'0 0.0
2018-Apr-01 21:29N 53°35' E 008°33'0 0.0
2018-Apr-01 20:59N 53°35' E 008°33'0 0.0
2018-Apr-01 20:29N 53°35' E 008°33'0 0.0
2018-Apr-01 19:59N 53°35' E 008°33'0 0.0
2018-Apr-01 19:29N 53°35' E 008°33'0 0.0
2018-Apr-01 18:56N 53°35' E 008°33'0 0.0
2018-Apr-01 18:29N 53°35' E 008°33'0 0.0
2018-Apr-01 17:59N 53°35' E 008°33'0 0.0
2018-Apr-01 17:29N 53°35' E 008°33'0 0.0
2018-Apr-01 16:59N 53°35' E 008°33'0 0.0
2018-Apr-01 16:29N 53°35' E 008°33'0 0.0
2018-Apr-01 15:59N 53°35' E 008°33'0 0.0
2018-Apr-01 15:29N 53°35' E 008°33'0 0.0
2018-Apr-01 14:59N 53°35' E 008°33'0 0.0
2018-Apr-01 14:29N 53°35' E 008°33'0 0.0
2018-Apr-01 13:59N 53°35' E 008°33'0 0.0
2018-Apr-01 13:29N 53°35' E 008°33'0 0.0
2018-Apr-01 12:59N 53°35' E 008°33'0 0.0
2018-Apr-01 12:29N 53°35' E 008°33'0 0.0
2018-Apr-01 11:59N 53°35' E 008°33'0 0.0
2018-Apr-01 11:29N 53°35' E 008°33'0 0.0
2018-Apr-01 10:59N 53°35' E 008°33'0 0.0
2018-Apr-01 10:26N 53°35' E 008°33'0 0.0
2018-Apr-01 09:59N 53°35' E 008°33'0 0.0
2018-Apr-01 09:29N 53°35' E 008°33'0 0.0
2018-Apr-01 08:59N 53°35' E 008°33'0 0.0
2018-Apr-01 08:29N 53°35' E 008°33'0 0.0
2018-Apr-01 07:59N 53°35' E 008°33'0 0.0
2018-Apr-01 07:29N 53°35' E 008°33'0 0.0
2018-Apr-01 06:59N 53°35' E 008°33'0 0.0
2018-Apr-01 06:29N 53°35' E 008°33'0 0.0
2018-Apr-01 05:59N 53°35' E 008°33'0 0.0
2018-Apr-01 05:29N 53°35' E 008°33'0 0.0
2018-Apr-01 04:59N 53°35' E 008°33'0 0.0
2018-Apr-01 04:29N 53°35' E 008°33'0 0.0
2018-Apr-01 03:59N 53°35' E 008°33'0 0.0
2018-Apr-01 03:29N 53°35' E 008°33'0 0.0
2018-Apr-01 02:59N 53°35' E 008°33'0 0.0
2018-Apr-01 02:29N 53°35' E 008°33'0 0.0
2018-Apr-01 01:59N 53°35' E 008°33'0 0.0
2018-Apr-01 01:29N 53°35' E 008°33'0 0.0
2018-Apr-01 00:59N 53°35' E 008°33'0 0.0
2018-Apr-01 00:29N 53°35' E 008°33'0 0.0
2018-Mar-31 23:59N 53°35' E 008°33'0 0.0
2018-Mar-31 23:29N 53°35' E 008°33'0 0.0
2018-Mar-31 22:59N 53°35' E 008°33'0 0.0
2018-Mar-31 22:29N 53°35' E 008°33'0 0.0
2018-Mar-31 21:59N 53°35' E 008°33'0 0.0
2018-Mar-31 21:29N 53°35' E 008°33'0 0.0
2018-Mar-31 20:59N 53°35' E 008°33'0 0.0
2018-Mar-31 20:29N 53°35' E 008°33'0 0.0
2018-Mar-31 19:59N 53°35' E 008°33'0 0.0
2018-Mar-31 19:29N 53°35' E 008°33'0 0.0
2018-Mar-31 18:59N 53°35' E 008°33'0 0.0
2018-Mar-31 18:29N 53°35' E 008°33'0 0.0
2018-Mar-31 17:59N 53°35' E 008°33'0 0.0
2018-Mar-31 17:29N 53°35' E 008°33'0 0.0
2018-Mar-31 16:59N 53°35' E 008°33'0 0.0
2018-Mar-31 16:29N 53°35' E 008°33'0 0.0
2018-Mar-31 15:59N 53°35' E 008°33'0 0.0
2018-Mar-31 15:29N 53°35' E 008°33'0 0.6
2018-Mar-31 15:00N 53°34' E 008°33'0 0.5
2018-Mar-31 14:31N 53°34' E 008°33'1 1.8
2018-Mar-31 14:00N 53°35' E 008°32'5 9.3
2018-Mar-31 13:30N 53°38' E 008°26'611.2
2018-Mar-31 13:00N 53°42' E 008°20'714.3
2018-Mar-31 12:30N 53°46' E 008°10'714.6
2018-Mar-31 12:00N 53°51' E 008°00'611.7
2018-Mar-31 11:30N 53°52' E 007°50'510.6
2018-Mar-31 11:00N 53°53' E 007°42'4 8.5
2018-Mar-31 10:30N 53°54' E 007°34'5 9.4
2018-Mar-31 10:00N 53°53' E 007°27'1 1.6
2018-Mar-31 09:25N 53°52' E 007°26'0 0.1
2018-Mar-31 07:27N 53°52' E 007°26'3 7.5
2018-Mar-31 07:00N 53°53' E 007°31'7413.9
2018-Mar-31 01:42N 53°34' E 005°31'315.2
2018-Mar-31 01:30N 53°33' E 005°26'815.1
2018-Mar-31 01:00N 53°32' E 005°14'815.3
2018-Mar-31 00:30N 53°30' E 005°01'815.5
2018-Mar-31 00:00N 53°26' E 004°49'815.2
2018-Mar-30 23:30N 53°21' E 004°41'816.8
2018-Mar-30 23:00N 53°13' E 004°34'816.8
2018-Mar-30 22:30N 53°06' E 004°27'816.6
2018-Mar-30 22:01N 52°59' E 004°20'816.5
2018-Mar-30 21:30N 52°51' E 004°14'816.3
2018-Mar-30 21:00N 52°44' E 004°08'815.4
2018-Mar-30 20:30N 52°39' E 003°58'916.2
2018-Mar-30 19:58N 52°33' E 003°48'716.1
2018-Mar-30 19:30N 52°28' E 003°39'815.9
2018-Mar-30 19:00N 52°22' E 003°31'816.3
2018-Mar-30 18:29N 52°16' E 003°22'3816.8
2018-Mar-30 16:13N 51°47' E 002°41'417.8
2018-Mar-30 15:58N 51°42' E 002°41'817.5
2018-Mar-30 15:30N 51°34' E 002°43'816.9
2018-Mar-30 15:00N 51°26' E 002°43'5 9.5
2018-Mar-30 14:30N 51°24' E 002°50'816.4
2018-Mar-30 14:00N 51°25' E 003°03'713.7
2018-Mar-30 13:30N 51°21' E 003°12'1 2.1
2018-Mar-30 13:00N 51°20' E 003°13'1 1.0
2018-Mar-30 12:31N 51°20' E 003°13'1 1.4
2018-Mar-30 11:58N 51°19' E 003°14'0 0.0
2018-Mar-30 11:28N 51°19' E 003°14'0 0.0
2018-Mar-30 10:58N 51°19' E 003°14'0 0.0
2018-Mar-30 10:31N 51°19' E 003°14'0 0.0
2018-Mar-30 10:01N 51°19' E 003°14'0 0.0
2018-Mar-30 09:28N 51°19' E 003°14'0 0.0
2018-Mar-30 08:58N 51°19' E 003°14'0 0.0
2018-Mar-30 08:28N 51°19' E 003°14'0 0.0
2018-Mar-30 07:58N 51°19' E 003°14'0 0.0
2018-Mar-30 07:31N 51°19' E 003°14'0 0.0
2018-Mar-30 06:58N 51°19' E 003°14'0 0.0
2018-Mar-30 06:28N 51°19' E 003°14'0 0.0
2018-Mar-30 06:01N 51°19' E 003°14'0 0.0
2018-Mar-30 05:28N 51°19' E 003°14'0 0.0
2018-Mar-30 04:58N 51°19' E 003°14'0 0.0
2018-Mar-30 04:28N 51°19' E 003°14'0 0.0
2018-Mar-30 03:58N 51°19' E 003°14'0 0.0
2018-Mar-30 03:28N 51°19' E 003°14'0 0.0
2018-Mar-30 02:58N 51°19' E 003°14'0 0.0
2018-Mar-30 02:28N 51°19' E 003°14'0 0.0
2018-Mar-30 02:01N 51°19' E 003°14'0 0.0
2018-Mar-30 01:28N 51°19' E 003°14'0 0.0
2018-Mar-30 00:58N 51°19' E 003°14'0 0.0
2018-Mar-30 00:28N 51°19' E 003°14'0 0.0
2018-Mar-29 23:58N 51°19' E 003°14'0 0.0
2018-Mar-29 23:31N 51°19' E 003°14'0 0.0
2018-Mar-29 22:58N 51°19' E 003°14'0 0.0
2018-Mar-29 22:28N 51°19' E 003°14'0 0.0
2018-Mar-29 21:58N 51°19' E 003°14'0 0.0
2018-Mar-29 21:28N 51°19' E 003°14'0 0.0
2018-Mar-29 20:58N 51°19' E 003°14'0 0.0
2018-Mar-29 20:28N 51°19' E 003°14'0 0.0
2018-Mar-29 19:58N 51°19' E 003°14'0 0.0
2018-Mar-29 19:28N 51°19' E 003°14'0 0.0
2018-Mar-29 19:01N 51°19' E 003°14'  

Dump ship's entire track history